createdAt,value
2023-03-29T00:00:11.121Z,2.10
2023-03-29T00:02:39.072Z,2.10
2023-03-29T00:05:07.881Z,2.10
2023-03-29T00:07:35.716Z,2.30
2023-03-29T00:10:04.555Z,1.80
2023-03-29T00:12:32.564Z,2.10
2023-03-29T00:15:02.145Z,2.10
2023-03-29T00:17:30.289Z,2.23
2023-03-29T00:19:58.225Z,1.87
2023-03-29T00:22:26.937Z,2.27
2023-03-29T00:24:54.890Z,2.23
2023-03-29T00:27:22.887Z,2.20
2023-03-29T00:29:50.749Z,2.43
2023-03-29T00:32:19.946Z,2.17
2023-03-29T00:34:50.940Z,2.40
2023-03-29T00:37:19.308Z,2.27
2023-03-29T00:39:47.508Z,2.27
2023-03-29T00:42:17.253Z,2.50
2023-03-29T00:44:57.965Z,2.20
2023-03-29T00:47:30.976Z,2.20
2023-03-29T00:50:03.646Z,2.10
2023-03-29T00:52:33.253Z,2.27
2023-03-29T00:55:07.913Z,2.27
2023-03-29T00:57:37.359Z,1.90
2023-03-29T01:00:10.400Z,2.27
2023-03-29T01:02:43.289Z,2.07
2023-03-29T01:05:15.813Z,2.40
2023-03-29T01:07:48.226Z,2.00
2023-03-29T01:10:21.059Z,2.03
2023-03-29T01:12:52.805Z,2.10
2023-03-29T01:15:25.176Z,2.17
2023-03-29T01:17:55.910Z,2.50
2023-03-29T01:20:34.429Z,2.40
2023-03-29T01:23:15.937Z,2.20
2023-03-29T01:25:54.808Z,2.30
2023-03-29T01:28:28.503Z,2.50
2023-03-29T01:31:01.961Z,2.40
2023-03-29T01:33:34.296Z,2.40
2023-03-29T01:36:08.155Z,2.40
2023-03-29T01:38:40.628Z,1.93
2023-03-29T01:41:09.013Z,2.20
2023-03-29T01:43:43.522Z,2.50
2023-03-29T01:46:19.095Z,2.60
2023-03-29T01:48:51.647Z,2.20
2023-03-29T01:51:25.019Z,2.40
2023-03-29T01:54:00.482Z,2.27
2023-03-29T01:56:30.166Z,2.70
2023-03-29T01:59:04.205Z,2.90
2023-03-29T02:01:38.367Z,2.40
2023-03-29T02:04:11.410Z,2.70
2023-03-29T02:06:41.654Z,2.53
2023-03-29T02:09:10.092Z,2.40
2023-03-29T02:11:38.237Z,2.43
2023-03-29T02:14:07.606Z,2.60
2023-03-29T02:16:37.333Z,2.23
2023-03-29T02:19:05.310Z,2.33
2023-03-29T02:21:40.911Z,2.33
2023-03-29T02:24:13.324Z,2.60
2023-03-29T02:26:41.306Z,2.60
2023-03-29T02:29:10.992Z,2.40
2023-03-29T02:31:42.766Z,2.20
2023-03-29T02:34:19.468Z,2.50
2023-03-29T02:36:50.666Z,2.40
2023-03-29T02:39:19.536Z,2.63
2023-03-29T02:41:50.782Z,2.43
2023-03-29T02:44:22.757Z,2.67
2023-03-29T02:46:54.444Z,2.40
2023-03-29T02:49:22.791Z,2.43
2023-03-29T02:51:54.022Z,2.17
2023-03-29T02:54:25.830Z,2.87
2023-03-29T02:56:58.072Z,2.60
2023-03-29T02:59:29.996Z,2.30
2023-03-29T03:01:58.387Z,2.80
2023-03-29T03:04:26.872Z,2.33
2023-03-29T03:06:54.619Z,2.33
2023-03-29T03:09:22.619Z,2.77
2023-03-29T03:11:50.786Z,3.00
2023-03-29T03:14:19.251Z,2.40
2023-03-29T03:16:48.678Z,2.43
2023-03-29T03:19:16.850Z,2.50
2023-03-29T03:21:47.129Z,2.40
2023-03-29T03:24:15.868Z,2.33
2023-03-29T03:26:46.262Z,2.60
2023-03-29T03:29:14.529Z,3.50
2023-03-29T03:31:43.114Z,2.50
2023-03-29T03:34:13.024Z,2.43
2023-03-29T03:36:40.706Z,2.50
2023-03-29T03:39:09.387Z,2.17
2023-03-29T03:41:37.644Z,2.50
2023-03-29T03:44:05.786Z,2.30
2023-03-29T03:46:33.885Z,2.50
2023-03-29T03:49:01.880Z,2.20
2023-03-29T03:51:31.516Z,2.43
2023-03-29T03:53:59.128Z,2.40
2023-03-29T03:56:29.995Z,2.60
2023-03-29T03:58:57.958Z,2.53
2023-03-29T04:01:27.387Z,2.50
2023-03-29T04:03:55.839Z,2.50
2023-03-29T04:06:23.926Z,2.60
2023-03-29T04:08:53.591Z,2.50
2023-03-29T04:11:21.212Z,2.40
2023-03-29T04:13:49.097Z,2.50
2023-03-29T04:16:16.859Z,2.57
2023-03-29T04:18:44.730Z,2.60
2023-03-29T04:21:12.800Z,2.30
2023-03-29T04:23:40.684Z,2.67
2023-03-29T04:26:10.546Z,2.40
2023-03-29T04:28:38.274Z,2.70
2023-03-29T04:31:06.804Z,2.30
2023-03-29T04:33:34.489Z,2.23
2023-03-29T04:36:02.532Z,2.40
2023-03-29T04:38:30.796Z,2.30
2023-03-29T04:41:02.306Z,2.33
2023-03-29T04:43:31.965Z,2.10
2023-03-29T04:45:59.758Z,2.40
2023-03-29T04:48:30.214Z,2.47
2023-03-29T04:50:58.745Z,1.93
2023-03-29T04:53:26.948Z,2.50
2023-03-29T04:55:55.609Z,2.80
2023-03-29T04:58:26.118Z,2.10
2023-03-29T05:00:58.866Z,2.17
2023-03-29T05:03:27.247Z,2.50
2023-03-29T05:05:55.980Z,2.63
2023-03-29T05:08:24.429Z,2.47
2023-03-29T05:10:52.072Z,2.60
2023-03-29T05:13:20.042Z,2.23
2023-03-29T05:15:48.137Z,2.60
2023-03-29T05:18:17.409Z,2.67
2023-03-29T05:20:45.751Z,2.13
2023-03-29T05:23:39.815Z,2.43
2023-03-29T05:26:10.063Z,2.53
2023-03-29T05:28:37.766Z,2.40
2023-03-29T05:31:06.734Z,2.37
2023-03-29T05:33:36.045Z,2.70
2023-03-29T05:36:05.967Z,2.93
2023-03-29T05:38:35.794Z,2.37
2023-03-29T05:41:07.065Z,3.00
2023-03-29T05:43:35.333Z,2.70
2023-03-29T05:46:03.232Z,2.90
2023-03-29T05:48:31.122Z,2.73
2023-03-29T05:50:59.112Z,2.30
2023-03-29T05:53:28.360Z,2.50
2023-03-29T05:55:57.284Z,2.50
2023-03-29T05:58:26.788Z,2.60
2023-03-29T06:00:55.245Z,2.40
2023-03-29T06:03:25.597Z,2.93
2023-03-29T06:05:57.914Z,2.40
2023-03-29T06:08:26.322Z,2.73
2023-03-29T06:10:59.671Z,2.33
2023-03-29T06:13:30.255Z,2.37
2023-03-29T06:15:58.129Z,2.07
2023-03-29T06:18:26.269Z,2.20
2023-03-29T06:20:54.913Z,2.57
2023-03-29T06:23:23.788Z,2.20
2023-03-29T06:25:52.075Z,2.17
2023-03-29T06:28:20.824Z,2.80
2023-03-29T06:30:49.977Z,2.60
2023-03-29T06:33:18.894Z,2.20
2023-03-29T06:35:49.499Z,2.43
2023-03-29T06:38:17.517Z,2.70
2023-03-29T06:40:45.826Z,2.50
2023-03-29T06:43:14.142Z,2.50
2023-03-29T06:45:42.021Z,2.60
2023-03-29T06:48:13.828Z,3.13
2023-03-29T06:50:41.572Z,2.40
2023-03-29T06:53:09.410Z,2.53
2023-03-29T06:55:37.110Z,2.60
2023-03-29T06:58:05.370Z,2.80
2023-03-29T07:00:35.830Z,2.90
2023-03-29T07:03:07.410Z,2.47
2023-03-29T07:05:41.411Z,2.70
2023-03-29T07:08:16.700Z,2.50
2023-03-29T07:10:47.678Z,2.60
2023-03-29T07:13:18.048Z,2.60
2023-03-29T07:15:46.040Z,2.60
2023-03-29T07:18:14.388Z,2.87
2023-03-29T07:20:44.647Z,2.63
2023-03-29T07:23:12.823Z,2.50
2023-03-29T07:25:41.397Z,2.47
2023-03-29T07:28:11.247Z,2.40
2023-03-29T07:30:39.003Z,2.87
2023-03-29T07:33:06.732Z,2.33
2023-03-29T07:35:34.534Z,2.40
2023-03-29T07:38:04.432Z,2.83
2023-03-29T07:40:32.106Z,2.60
2023-03-29T07:43:00.098Z,2.50
2023-03-29T07:45:29.786Z,2.20
2023-03-29T07:48:00.929Z,2.97
2023-03-29T07:50:32.375Z,2.60
2023-03-29T07:53:01.111Z,2.47
2023-03-29T07:55:31.840Z,2.60
2023-03-29T07:57:59.852Z,2.53
2023-03-29T08:00:30.621Z,2.50
2023-03-29T08:02:58.570Z,2.97
2023-03-29T08:05:40.236Z,2.70
2023-03-29T08:08:11.394Z,2.90
2023-03-29T08:10:41.598Z,2.70
2023-03-29T08:13:10.733Z,3.07
2023-03-29T08:15:41.518Z,2.47
2023-03-29T08:18:09.475Z,2.70
2023-03-29T08:20:37.513Z,3.10
2023-03-29T08:23:06.653Z,2.73
2023-03-29T08:25:35.472Z,2.63
2023-03-29T08:28:06.746Z,2.57
2023-03-29T08:30:35.265Z,2.60
2023-03-29T08:33:05.967Z,2.80
2023-03-29T08:35:33.890Z,2.67
2023-03-29T08:38:02.173Z,2.80
2023-03-29T08:40:32.079Z,2.93
2023-03-29T08:43:15.089Z,2.60
2023-03-29T08:45:52.634Z,2.90
2023-03-29T08:48:28.652Z,2.70
2023-03-29T08:51:02.734Z,2.40
2023-03-29T08:53:34.581Z,2.40
2023-03-29T08:56:06.115Z,2.70
2023-03-29T08:58:38.114Z,2.63
2023-03-29T09:01:09.032Z,2.93
2023-03-29T09:03:41.763Z,2.60
2023-03-29T09:06:12.652Z,2.50
2023-03-29T09:08:44.058Z,2.50
2023-03-29T09:11:24.307Z,2.70
2023-03-29T09:14:02.231Z,2.60
2023-03-29T09:16:38.969Z,2.60
2023-03-29T09:19:27.019Z,2.63
2023-03-29T09:22:04.224Z,3.37
2023-03-29T09:24:43.659Z,3.43
2023-03-29T09:27:16.379Z,2.87
2023-03-29T09:30:14.510Z,3.13
2023-03-29T09:32:51.283Z,3.17
2023-03-29T09:35:23.825Z,2.70
2023-03-29T09:37:53.519Z,3.00
2023-03-29T09:40:25.562Z,2.67
2023-03-29T09:42:56.147Z,3.20
2023-03-29T09:45:25.593Z,3.00
2023-03-29T09:47:58.906Z,3.03
2023-03-29T09:50:32.953Z,4.00
2023-03-29T09:53:03.017Z,2.73
2023-03-29T09:55:36.276Z,3.13
2023-03-29T09:58:14.526Z,3.13
2023-03-29T10:00:44.955Z,3.17
2023-03-29T10:03:19.427Z,2.90
2023-03-29T10:05:48.281Z,2.90
2023-03-29T10:08:22.408Z,2.93
2023-03-29T10:10:51.573Z,2.97
2023-03-29T10:13:24.254Z,3.27
2023-03-29T10:16:09.243Z,3.03
2023-03-29T10:18:41.963Z,3.13
2023-03-29T10:21:16.214Z,3.60
2023-03-29T10:23:45.262Z,3.03
2023-03-29T10:26:21.791Z,3.30
2023-03-29T10:28:53.056Z,3.00
2023-03-29T10:31:23.533Z,3.43
2023-03-29T10:33:54.723Z,3.27
2023-03-29T10:36:24.829Z,3.50
2023-03-29T10:38:53.799Z,3.03
2023-03-29T10:41:23.289Z,3.03
2023-03-29T10:43:52.348Z,3.17
2023-03-29T10:46:24.100Z,3.50
2023-03-29T10:48:58.983Z,3.33
2023-03-29T10:51:30.199Z,3.40
2023-03-29T10:54:00.902Z,3.30
2023-03-29T10:56:41.240Z,3.47
2023-03-29T10:59:24.376Z,3.53
2023-03-29T11:02:34.424Z,3.30
2023-03-29T11:05:17.129Z,3.40
2023-03-29T11:08:08.192Z,3.37
2023-03-29T11:10:45.163Z,3.30
2023-03-29T11:13:23.412Z,3.33
2023-03-29T11:16:02.914Z,3.43
2023-03-29T11:19:05.003Z,3.70
2023-03-29T11:21:43.068Z,3.40
2023-03-29T11:24:28.482Z,3.07
2023-03-29T11:27:12.035Z,3.50
2023-03-29T11:29:53.538Z,3.50
2023-03-29T11:32:30.315Z,3.60
2023-03-29T11:35:08.214Z,3.50
2023-03-29T11:37:43.382Z,3.90
2023-03-29T11:40:28.079Z,3.80
2023-03-29T11:43:01.841Z,3.87
2023-03-29T11:45:34.303Z,4.00
2023-03-29T11:48:06.317Z,4.00
2023-03-29T11:50:43.292Z,3.97
2023-03-29T11:53:17.707Z,4.37
2023-03-29T11:55:47.330Z,4.27
2023-03-29T11:58:22.456Z,3.97
2023-03-29T12:00:55.438Z,4.30
2023-03-29T12:03:37.003Z,4.50
2023-03-29T12:06:13.494Z,5.17
2023-03-29T12:08:46.357Z,4.80
2023-03-29T12:11:22.383Z,4.87
2023-03-29T12:13:54.832Z,4.80
2023-03-29T12:16:28.656Z,4.80
2023-03-29T12:18:59.570Z,4.40
2023-03-29T12:21:31.684Z,4.23
2023-03-29T12:24:00.641Z,4.53
2023-03-29T12:26:47.683Z,4.23
2023-03-29T12:29:30.791Z,4.53
2023-03-29T12:32:14.118Z,4.73
2023-03-29T12:34:59.800Z,4.33
2023-03-29T12:37:48.373Z,4.37
2023-03-29T12:40:18.604Z,4.60
2023-03-29T12:42:49.595Z,4.87
2023-03-29T12:45:22.652Z,4.43
2023-03-29T12:47:52.857Z,4.43
2023-03-29T12:50:30.958Z,4.07
2023-03-29T12:53:16.112Z,4.00
2023-03-29T12:55:51.510Z,4.03
2023-03-29T12:58:57.179Z,4.00
2023-03-29T13:01:33.910Z,4.30
2023-03-29T13:04:16.976Z,3.47
2023-03-29T13:07:04.093Z,3.90
2023-03-29T13:09:37.686Z,4.30
2023-03-29T13:12:09.302Z,4.03
2023-03-29T13:14:39.111Z,3.20
2023-03-29T13:17:18.393Z,3.50
2023-03-29T13:19:53.639Z,3.43
2023-03-29T13:22:33.349Z,3.93
2023-03-29T13:25:15.498Z,16.13
2023-03-29T13:27:53.520Z,12.13
2023-03-29T13:30:36.661Z,5.20
2023-03-29T13:33:16.119Z,3.07
2023-03-29T13:35:52.213Z,3.50
2023-03-29T13:38:22.575Z,3.93
2023-03-29T13:41:03.754Z,3.60
2023-03-29T13:43:34.899Z,3.00
2023-03-29T13:46:22.356Z,4.00
2023-03-29T13:49:05.455Z,2.93
2023-03-29T13:51:39.003Z,3.10
2023-03-29T13:54:27.790Z,3.30
2023-03-29T13:57:07.696Z,3.27
2023-03-29T13:59:39.682Z,3.53
2023-03-29T14:02:09.478Z,3.60
2023-03-29T14:04:42.944Z,3.63
2023-03-29T14:07:14.981Z,3.83
2023-03-29T14:09:47.937Z,3.63
2023-03-29T14:12:18.407Z,3.57
2023-03-29T14:14:57.834Z,3.67
2023-03-29T14:17:27.866Z,3.53
2023-03-29T14:19:59.607Z,3.57
2023-03-29T14:22:33.471Z,3.77
2023-03-29T14:25:04.885Z,3.17
2023-03-29T14:27:37.364Z,3.50
2023-03-29T14:30:23.133Z,3.73
2023-03-29T14:32:52.367Z,4.43
2023-03-29T14:35:20.895Z,4.17
2023-03-29T14:37:49.808Z,3.57
2023-03-29T14:40:20.590Z,3.63
2023-03-29T14:42:51.009Z,4.37
2023-03-29T14:45:23.231Z,3.63
2023-03-29T14:47:51.860Z,3.80
2023-03-29T14:50:25.142Z,3.70
2023-03-29T14:52:53.808Z,3.80
2023-03-29T14:55:23.961Z,3.97
2023-03-29T14:57:56.188Z,3.70
2023-03-29T15:00:29.051Z,3.90
2023-03-29T15:02:59.322Z,3.60
2023-03-29T15:05:35.127Z,3.33
2023-03-29T15:08:03.889Z,3.47
2023-03-29T15:10:33.711Z,3.27
2023-03-29T15:13:05.352Z,3.43
2023-03-29T15:15:34.876Z,3.53
2023-03-29T15:18:04.297Z,3.27
2023-03-29T15:20:35.420Z,3.40
2023-03-29T15:23:09.623Z,3.50
2023-03-29T15:25:39.545Z,4.00
2023-03-29T15:28:31.325Z,4.40
2023-03-29T15:31:07.668Z,3.67
2023-03-29T15:33:38.246Z,4.10
2023-03-29T15:36:07.972Z,3.93
2023-03-29T15:38:44.674Z,3.70
2023-03-29T15:41:14.587Z,3.50
2023-03-29T15:43:44.178Z,4.10
2023-03-29T15:46:14.035Z,3.73
2023-03-29T15:48:42.235Z,2.97
2023-03-29T15:51:11.752Z,2.53
2023-03-29T15:53:40.374Z,2.97
2023-03-29T15:56:11.567Z,2.70
2023-03-29T15:58:39.363Z,2.80
2023-03-29T16:01:16.295Z,2.80
2023-03-29T16:03:47.111Z,3.17
2023-03-29T16:06:17.360Z,2.90
2023-03-29T16:08:45.094Z,3.00
2023-03-29T16:11:12.825Z,3.17
2023-03-29T16:13:42.219Z,3.00
2023-03-29T16:16:12.895Z,2.70
2023-03-29T16:18:40.661Z,3.00
2023-03-29T16:21:12.816Z,3.50
2023-03-29T16:23:40.796Z,2.73
2023-03-29T16:26:08.881Z,2.83
2023-03-29T16:28:37.824Z,3.00
2023-03-29T16:31:06.801Z,3.07
2023-03-29T16:33:36.080Z,2.57
2023-03-29T16:36:04.134Z,3.07
2023-03-29T16:38:33.798Z,3.07
2023-03-29T16:41:04.318Z,2.80
2023-03-29T16:43:32.462Z,2.90
2023-03-29T16:46:00.221Z,3.17
2023-03-29T16:48:28.989Z,2.83
2023-03-29T16:50:59.509Z,2.70
2023-03-29T16:53:28.535Z,2.57
2023-03-29T16:55:56.908Z,2.60
2023-03-29T16:58:25.104Z,3.20
2023-03-29T17:00:53.717Z,3.20
2023-03-29T17:03:22.934Z,2.93
2023-03-29T17:05:52.006Z,2.73
2023-03-29T17:08:22.366Z,2.83
2023-03-29T17:10:54.052Z,3.57
2023-03-29T17:13:26.338Z,2.90
2023-03-29T17:15:55.672Z,2.80
2023-03-29T17:18:25.027Z,3.17
2023-03-29T17:20:53.798Z,2.50
2023-03-29T17:23:23.633Z,3.07
2023-03-29T17:25:51.992Z,3.33
2023-03-29T17:28:19.854Z,3.27
2023-03-29T17:30:49.270Z,3.67
2023-03-29T17:33:18.230Z,3.63
2023-03-29T17:35:48.472Z,3.67
2023-03-29T17:38:19.279Z,3.70
2023-03-29T17:40:54.801Z,4.07
2023-03-29T17:43:23.204Z,3.63
2023-03-29T17:45:55.687Z,3.87
2023-03-29T17:48:24.796Z,4.20
2023-03-29T17:50:52.614Z,3.70
2023-03-29T17:53:20.317Z,3.67
2023-03-29T17:55:48.428Z,3.67
2023-03-29T17:58:17.976Z,3.13
2023-03-29T18:00:45.637Z,3.90
2023-03-29T18:03:13.758Z,3.87
2023-03-29T18:05:42.337Z,4.00
2023-03-29T18:08:10.084Z,3.83
2023-03-29T18:10:38.163Z,3.77
2023-03-29T18:13:05.865Z,3.90
2023-03-29T18:15:35.740Z,3.40
2023-03-29T18:18:03.982Z,3.50
2023-03-29T18:20:33.083Z,3.83
2023-03-29T18:23:01.086Z,3.67
2023-03-29T18:25:29.475Z,3.80
2023-03-29T18:27:57.784Z,3.77
2023-03-29T18:30:25.605Z,3.87
2023-03-29T18:32:54.727Z,3.63
2023-03-29T18:35:22.473Z,3.70
2023-03-29T18:37:50.778Z,4.10
2023-03-29T18:40:20.445Z,4.03
2023-03-29T18:42:48.943Z,3.57
2023-03-29T18:45:16.906Z,3.47
2023-03-29T18:47:44.859Z,3.57
2023-03-29T18:50:14.269Z,3.53
2023-03-29T18:52:42.117Z,3.37
2023-03-29T18:55:11.698Z,3.50
2023-03-29T18:57:39.917Z,3.40
2023-03-29T19:00:12.601Z,3.40
2023-03-29T19:02:40.595Z,3.60
2023-03-29T19:05:09.468Z,4.07
2023-03-29T19:07:39.072Z,3.50
2023-03-29T19:10:08.512Z,3.80
2023-03-29T19:12:36.982Z,4.20
2023-03-29T19:15:05.527Z,3.30
2023-03-29T19:17:33.246Z,3.63
2023-03-29T19:20:01.679Z,3.70
2023-03-29T19:22:29.680Z,4.00
2023-03-29T19:24:59.353Z,3.17
2023-03-29T19:27:27.318Z,3.23
2023-03-29T19:29:55.231Z,3.40
2023-03-29T19:32:23.103Z,3.40
2023-03-29T19:34:51.062Z,3.17
2023-03-29T19:37:19.221Z,3.37
2023-03-29T19:39:47.047Z,2.90
2023-03-29T19:42:17.164Z,3.73
2023-03-29T19:44:47.926Z,3.60
2023-03-29T19:47:15.880Z,3.20
2023-03-29T19:49:47.028Z,3.67
2023-03-29T19:52:14.822Z,3.77
2023-03-29T19:54:42.798Z,3.87
2023-03-29T19:57:11.121Z,3.70
2023-03-29T19:59:41.115Z,3.90
2023-03-29T20:02:12.005Z,3.43
2023-03-29T20:04:40.410Z,3.87
2023-03-29T20:07:10.456Z,3.60
2023-03-29T20:09:40.571Z,3.27
2023-03-29T20:12:09.961Z,3.10
2023-03-29T20:14:40.389Z,2.67
2023-03-29T20:17:08.581Z,2.60
2023-03-29T20:19:36.848Z,3.10
2023-03-29T20:22:05.304Z,3.30
2023-03-29T20:24:34.971Z,3.10
2023-03-29T20:27:04.539Z,2.70
2023-03-29T20:29:33.152Z,3.20
2023-03-29T20:32:02.471Z,3.43
2023-03-29T20:34:30.420Z,2.73
2023-03-29T20:37:00.954Z,2.93
2023-03-29T20:39:29.581Z,2.77
2023-03-29T20:41:57.295Z,3.00
2023-03-29T20:44:28.593Z,2.70
2023-03-29T20:47:04.294Z,3.10
2023-03-29T20:49:37.298Z,2.77
2023-03-29T20:52:08.612Z,2.87
2023-03-29T20:54:37.048Z,2.83
2023-03-29T20:57:05.430Z,2.60
2023-03-29T20:59:35.607Z,3.20
2023-03-29T21:02:04.986Z,2.70
2023-03-29T21:04:34.601Z,2.73
2023-03-29T21:07:03.815Z,2.47
2023-03-29T21:09:34.326Z,3.23
2023-03-29T21:12:02.907Z,3.40
2023-03-29T21:14:33.209Z,2.77
2023-03-29T21:17:02.657Z,2.97
2023-03-29T21:19:30.721Z,3.10
2023-03-29T21:22:00.143Z,3.53
2023-03-29T21:24:28.208Z,3.37
2023-03-29T21:26:56.172Z,3.33
2023-03-29T21:29:24.109Z,3.00
2023-03-29T21:31:52.333Z,2.93
2023-03-29T21:34:20.370Z,2.73
2023-03-29T21:36:49.140Z,3.10
2023-03-29T21:39:18.860Z,3.20
2023-03-29T21:41:46.833Z,3.03
2023-03-29T21:44:14.522Z,3.00
2023-03-29T21:46:42.351Z,3.30
2023-03-29T21:49:10.544Z,3.47
2023-03-29T21:51:38.519Z,2.87
2023-03-29T21:54:06.422Z,2.70
2023-03-29T21:56:35.934Z,3.00
2023-03-29T21:59:03.686Z,3.10
2023-03-29T22:01:31.826Z,2.87
2023-03-29T22:03:59.491Z,2.97
2023-03-29T22:06:27.481Z,2.70
2023-03-29T22:08:55.251Z,2.67
2023-03-29T22:11:26.280Z,2.60
2023-03-29T22:13:56.965Z,3.30
2023-03-29T22:16:28.617Z,2.97
2023-03-29T22:18:56.307Z,2.80
2023-03-29T22:21:26.578Z,2.83
2023-03-29T22:23:56.307Z,2.83
2023-03-29T22:26:27.700Z,3.13
2023-03-29T22:28:57.888Z,2.90
2023-03-29T22:31:27.346Z,3.43
2023-03-29T22:33:55.820Z,2.70
2023-03-29T22:36:26.024Z,2.60
2023-03-29T22:38:54.933Z,3.03
2023-03-29T22:41:24.895Z,3.27
2023-03-29T22:43:53.735Z,3.30
2023-03-29T22:46:24.078Z,2.93
2023-03-29T22:48:52.622Z,2.80
2023-03-29T22:51:21.521Z,3.07
2023-03-29T22:53:49.363Z,2.70
2023-03-29T22:56:17.674Z,2.67
2023-03-29T22:58:46.133Z,2.97
2023-03-29T23:01:15.796Z,2.90
2023-03-29T23:03:45.878Z,3.10
2023-03-29T23:06:13.836Z,2.80
2023-03-29T23:08:41.594Z,2.83
2023-03-29T23:11:09.471Z,3.00
2023-03-29T23:13:37.140Z,2.67
2023-03-29T23:16:05.188Z,2.97
2023-03-29T23:18:34.817Z,2.70
2023-03-29T23:21:06.493Z,2.47
2023-03-29T23:23:37.090Z,2.47
2023-03-29T23:26:05.494Z,2.50
2023-03-29T23:28:34.885Z,2.80
2023-03-29T23:31:05.212Z,2.97
2023-03-29T23:33:35.467Z,3.00
2023-03-29T23:36:07.624Z,2.80
2023-03-29T23:38:38.766Z,2.43
2023-03-29T23:41:10.914Z,2.67
2023-03-29T23:43:40.754Z,2.60
2023-03-29T23:46:11.674Z,2.50
2023-03-29T23:48:39.893Z,3.07
2023-03-29T23:51:09.991Z,2.60
2023-03-29T23:53:37.900Z,2.60
2023-03-29T23:56:07.760Z,2.47
2023-03-29T23:58:38.212Z,2.50
